CYSK

Sanikiluaq Airport

Sanikiluaq, Canada
METAR CYSK 222100Z 08008KT 15SM BKN030 M02/M09 A3013 RMK SC6 SLP207
Observed Flight Rules
Oct-22 @ 21:00 UTC (38 minutes ago) Marginal Visual Flight Rules
Wind Visibility Clouds
80° at 8 knots 15 miles
  • Broken at 3,000' AGL
Temperatures Readings
Current -2°C / 28°F
Dewpoint -9°C / 16°F
Humidity 59%
Altimeter 30.13" Hg
Pressure 1020.7 hPa
Elevation 26
METAR CYSK 222100Z 08008KT 15SM BKN030 M02/M09 A3013 RMK SC6 SLP207
Observed Flight Rules
Oct-22 @ 21:00 UTC
(38 minutes ago)
MVFR
Wind Visibility
80° at 8 knots 15 miles
Clouds
  • Broken at 3,000' AGL
Temperature Dewpoint
-2°C / 28°F -9°C / 16°F
Humidity Altimeter Pressure
59% 30.13" Hg 1020.7 hPa